Airfield :
LOGIN :

Register | Disclaimer

   EN    FR    IT 

 










Legend :    VFR   Marginal VFR   IFR   Intensive IFR   Very Intensive IFR
Visi :
Ceiling :
>= 8 km
>= 3000ft
5 to 8 km
1000 to 3000 ft
1500m to 5 km
500 to 1000 ft
800 to 1500m
200 to 500 ft
< 800m
< 200 ft
Symbols :   Thunderstorms  Fog  Heavy snow  Heavy precipitations  Wind > 20 kt
SIGMETs :     Misc.  Thunderstorms  Icing  Turbulence  Mountain Waves  Volcanic Ashes







- Airport Elevation : 13 ft
- IATA code : CEQ
- Download approach charts


LFMD - Cannes Mandelieu

CURRENT METAR :
  • 202000Z AUTO VRB03KT CAVOK 24/18 Q1016 TEMPO FEW040CB

EXPIRED METARs :
  • 201930Z AUTO VRB02KT CAVOK 25/18 Q1016 TEMPO FEW040CB
  • 201900Z AUTO VRB02KT 9999 3300 NSC 25/21 Q1016 TEMPO FEW040CB
  • 201830Z AUTO VRB02KT CAVOK 26/21 Q1016 TEMPO FEW040CB
  • 201800Z AUTO VRB03KT CAVOK 26/19 Q1016 TEMPO FEW040CB
  • 201730Z AUTO 15003KT 110V180 CAVOK 26/18 Q1016 TEMPO FEW040CB
  • 201700Z AUTO 16004KT 100V200 CAVOK 27/18 Q1016 TEMPO FEW040CB

TAF AMD TAF LFMD
Valid from the 20 at 16:00 until the 21 at 15:00 UTC


201656Z 2016/2115 18007KT 9999 SCT020
PROB30
TEMPO 2016/2021 FEW040CB
BECMG 2017/2019 VRB04KT
PROB30
TEMPO 2103/2107 BKN014
BECMG 2108/2110 09010KT
ATIS : +33 4 93 48 73 23
No reported NOTAMs for that airfield.



MET'MAP, your aeronautical weather chart ! - Copyright ORBIFLY December 2007 - Disclaimer

ORBIFLY MET'MAP TEAM :

Programming & Development : Alexandra Zaïnal
Concept & Development : Baudouin d'Aumeries
Co-Development & Prog : Marc-Olivier Méhu
Technical & hardware support : Manuel Goepfert

Contact : metmap@orbifly.com




SOURCES & CREDITS :

   NOAA